Time;durP1;ratioP1;P1;durP2;ratioP2;P2;SDS_P1;SDS_P2;PMS_P1;PMS_P2;Temp;Humidity;BMP_temperature;BMP_pressure;BME280_temperature;BME280_humidity;BME280_pressure;Samples;Min_cycle;Max_cycle;Signal;HPM_P1;HPM_P2
2022/05/31 00:04:33;;;;;;;24.27;15.43;;;10.30;99.90;;;;;;10490889;28;20036;-81
2022/05/31 00:09:34;;;;;;;24.95;15.98;;;10.30;99.90;;;;;;10520835;28;20024;-81
2022/05/31 00:14:35;;;;;;;29.37;19.80;;;10.30;99.90;;;;;;10499974;28;20582;-81
2022/05/31 00:19:35;;;;;;;29.85;18.42;;;10.30;99.90;;;;;;10491135;28;20028;-81
2022/05/31 00:24:39;;;;;;;25.37;17.53;;;10.30;99.90;;;;;;10489854;28;20032;-81
2022/05/31 00:29:40;;;;;;;26.08;18.60;;;10.40;99.90;;;;;;10522087;28;20028;-81
2022/05/31 00:34:46;;;;;;;29.20;19.35;;;10.40;99.90;;;;;;10500830;28;20452;-81
2022/05/31 00:39:47;;;;;;;24.52;16.35;;;10.40;99.90;;;;;;10493072;28;20038;-81
2022/05/31 00:44:48;;;;;;;22.67;14.60;;;10.50;99.90;;;;;;10495404;28;20038;-81
2022/05/31 00:49:57;;;;;;;22.63;15.45;;;10.50;99.90;;;;;;10521945;28;20032;-81
2022/05/31 00:55:17;;;;;;;21.63;14.00;;;10.50;99.90;;;;;;10500261;28;20062;-81
2022/05/31 01:00:19;;;;;;;23.08;15.88;;;10.60;99.90;;;;;;10491429;28;20020;-81
2022/05/31 01:05:20;;;;;;;22.48;16.17;;;10.60;99.90;;;;;;10513030;28;20136;-81
2022/05/31 01:10:21;;;;;;;23.35;15.85;;;10.60;99.90;;;;;;10488579;28;20085;-81
2022/05/31 01:15:22;;;;;;;26.88;17.55;;;10.60;99.90;;;;;;10493342;28;20059;-81
2022/05/31 01:20:23;;;;;;;23.35;15.90;;;10.70;99.90;;;;;;10514502;28;20045;-81
2022/05/31 01:25:46;;;;;;;27.95;17.88;;;10.60;99.90;;;;;;10506797;28;20036;-81
2022/05/31 01:31:07;;;;;;;23.88;16.27;;;10.40;99.90;;;;;;10489598;28;20127;-82
2022/05/31 01:36:18;;;;;;;27.50;18.48;;;10.30;99.90;;;;;;10511642;28;20483;-81
2022/05/31 01:41:34;;;;;;;30.33;19.35;;;9.90;99.90;;;;;;10515099;28;20487;-81
2022/05/31 01:46:35;;;;;;;23.30;16.23;;;9.70;99.90;;;;;;10495577;28;20461;-81
2022/05/31 01:51:40;;;;;;;29.97;19.20;;;9.50;99.90;;;;;;10497132;28;20020;-82
2022/05/31 01:56:42;;;;;;;25.40;16.77;;;9.30;99.90;;;;;;10487611;28;20558;-81
2022/05/31 02:01:43;;;;;;;25.53;17.53;;;9.20;99.90;;;;;;10494282;28;20044;-81
2022/05/31 02:06:45;;;;;;;26.87;17.63;;;9.20;99.90;;;;;;10489593;28;20493;-80
2022/05/31 02:11:45;;;;;;;26.43;19.30;;;8.90;99.90;;;;;;10534123;28;20033;-81
2022/05/31 02:16:46;;;;;;;40.70;25.30;;;8.90;99.90;;;;;;10514039;28;20036;-81
2022/05/31 02:21:46;;;;;;;32.10;22.50;;;8.80;99.90;;;;;;10507918;28;20021;-82
2022/05/31 02:26:47;;;;;;;31.23;21.47;;;8.70;99.90;;;;;;10495331;28;20068;-82
2022/05/31 02:31:49;;;;;;;32.37;22.03;;;8.60;99.90;;;;;;10503841;28;20535;-80
2022/05/31 02:36:50;;;;;;;34.80;23.70;;;8.60;99.90;;;;;;10517148;28;20115;-81
2022/05/31 02:41:51;;;;;;;38.73;22.73;;;8.60;99.90;;;;;;10517360;28;20028;-81
2022/05/31 02:46:52;;;;;;;53.20;32.43;;;8.50;99.90;;;;;;10498989;28;20029;-82
2022/05/31 02:51:53;;;;;;;56.67;32.53;;;8.50;99.90;;;;;;10495676;28;20423;-82
2022/05/31 02:56:54;;;;;;;37.27;25.50;;;8.50;99.90;;;;;;10509701;28;20032;-82
2022/05/31 03:01:54;;;;;;;53.70;34.07;;;8.50;99.90;;;;;;10495998;28;20050;-81
2022/05/31 03:07:01;;;;;;;45.87;26.67;;;8.50;99.90;;;;;;10521598;28;20052;-81
2022/05/31 03:12:08;;;;;;;38.47;26.37;;;8.50;99.90;;;;;;10512083;28;20037;-83
2022/05/31 03:17:10;;;;;;;30.07;20.70;;;8.50;99.90;;;;;;10502118;28;20035;-81
2022/05/31 03:22:16;;;;;;;32.80;23.77;;;8.50;99.90;;;;;;10503105;28;20028;-80
2022/05/31 03:27:17;;;;;;;41.15;25.92;;;8.40;99.90;;;;;;10493772;28;20040;-81
2022/05/31 03:32:19;;;;;;;33.40;22.97;;;8.30;99.90;;;;;;10520868;28;20357;-81
2022/05/31 03:37:19;;;;;;;43.73;27.03;;;8.30;99.90;;;;;;10496156;28;20035;-81
2022/05/31 03:42:20;;;;;;;39.63;27.27;;;8.30;99.90;;;;;;10517424;28;20490;-81
2022/05/31 03:47:20;;;;;;;30.07;20.80;;;8.40;99.90;;;;;;10493004;28;20024;-81
2022/05/31 03:52:21;;;;;;;30.30;21.10;;;8.50;99.90;;;;;;10509578;28;20078;-82
2022/05/31 03:57:22;;;;;;;36.10;24.80;;;8.60;99.90;;;;;;10497066;28;20040;-81
2022/05/31 04:02:22;;;;;;;33.67;23.30;;;8.70;99.90;;;;;;10499785;28;20033;-81
2022/05/31 04:07:23;;;;;;;30.43;21.63;;;8.70;99.90;;;;;;10507524;28;20136;-83
2022/05/31 04:12:23;;;;;;;31.97;20.37;;;8.70;99.90;;;;;;10521447;28;20043;-82
2022/05/31 04:17:24;;;;;;;31.93;21.43;;;8.80;99.90;;;;;;10510206;28;20419;-81
2022/05/31 04:22:25;;;;;;;33.40;22.73;;;8.90;99.90;;;;;;10504847;28;20040;-81
2022/05/31 04:27:25;;;;;;;29.63;20.77;;;9.00;99.90;;;;;;10492475;28;20104;-81
2022/05/31 04:32:26;;;;;;;33.00;21.67;;;9.10;99.90;;;;;;10499834;28;20115;-81
2022/05/31 04:37:28;;;;;;;38.37;26.63;;;9.30;99.90;;;;;;10504475;28;20122;-82
2022/05/31 04:42:29;;;;;;;33.77;24.23;;;9.50;99.90;;;;;;10525476;28;20568;-81
2022/05/31 04:47:29;;;;;;;34.10;23.90;;;9.70;99.90;;;;;;10521807;28;20154;-81
2022/05/31 04:52:31;;;;;;;31.30;22.97;;;10.00;99.90;;;;;;10502794;28;20044;-82
2022/05/31 04:57:31;;;;;;;39.20;25.02;;;10.20;99.90;;;;;;10504581;28;20019;-81
2022/05/31 05:02:33;;;;;;;35.47;24.42;;;10.50;99.90;;;;;;10504261;28;20028;-82
2022/05/31 05:07:33;;;;;;;38.00;23.35;;;10.70;99.90;;;;;;10496834;28;20060;-81
2022/05/31 05:12:35;;;;;;;23.88;17.65;;;10.90;99.90;;;;;;10506599;28;20381;-81
2022/05/31 05:17:35;;;;;;;22.13;16.45;;;11.10;99.90;;;;;;10508290;28;20086;-81
2022/05/31 05:22:36;;;;;;;22.45;15.55;;;11.40;99.90;;;;;;10512047;28;20166;-81
2022/05/31 05:27:37;;;;;;;25.25;15.23;;;11.50;99.90;;;;;;10491640;28;20043;-81
2022/05/31 05:32:37;;;;;;;23.40;16.67;;;11.80;99.90;;;;;;10522619;28;20035;-81
2022/05/31 05:37:38;;;;;;;17.92;12.20;;;12.00;99.90;;;;;;10512355;28;20477;-81
2022/05/31 05:42:42;;;;;;;16.55;10.60;;;12.30;99.90;;;;;;10496902;28;20605;-81
2022/05/31 05:47:42;;;;;;;15.57;10.32;;;12.50;99.90;;;;;;10522329;28;20032;-81
2022/05/31 05:52:48;;;;;;;13.23;9.98;;;12.70;99.90;;;;;;10510054;28;20040;-81
2022/05/31 05:57:49;;;;;;;12.98;8.77;;;12.90;99.90;;;;;;10487883;28;20797;-81
2022/05/31 06:03:06;;;;;;;12.48;8.18;;;13.20;99.90;;;;;;10501410;28;20036;-81
2022/05/31 06:08:20;;;;;;;12.07;7.75;;;13.40;99.90;;;;;;10509553;28;20517;-81
2022/05/31 06:13:26;;;;;;;13.40;7.93;;;13.60;99.90;;;;;;10518081;28;20036;-81
2022/05/31 06:18:31;;;;;;;20.48;9.65;;;13.90;99.90;;;;;;10490343;28;20471;-81
2022/05/31 06:23:36;;;;;;;;;;;14.10;99.90;;;;;;10521171;28;20024;-81
2022/05/31 06:28:37;;;;;;;20.88;9.85;;;14.30;99.90;;;;;;10495021;28;19904;-81
2022/05/31 06:33:38;;;;;;;21.98;9.93;;;14.60;99.90;;;;;;10515580;28;20036;-81
2022/05/31 06:38:38;;;;;;;13.23;8.13;;;14.80;99.90;;;;;;10489845;28;20407;-81
2022/05/31 06:43:39;;;;;;;14.63;8.10;;;15.10;99.90;;;;;;10522341;28;20032;-81
2022/05/31 06:48:40;;;;;;;14.13;7.35;;;15.40;99.90;;;;;;10503680;28;20034;-81
2022/05/31 06:59:00;;;;;;;13.00;6.43;;;16.80;99.90;;;;;;10497939;28;20063;-81
2022/05/31 07:04:01;;;;;;;11.38;5.90;;;18.20;95.00;;;;;;10522359;28;20062;-82
2022/05/31 07:09:02;;;;;;;18.08;5.18;;;19.40;90.00;;;;;;10526652;28;20054;-82
2022/05/31 07:14:02;;;;;;;8.32;4.50;;;20.10;85.50;;;;;;10503963;28;20032;-82
2022/05/31 07:19:03;;;;;;;8.30;4.00;;;20.70;80.30;;;;;;10504183;28;20036;-82
2022/05/31 07:24:04;;;;;;;5.68;4.07;;;21.20;76.80;;;;;;10515444;28;20025;-81
2022/05/31 07:29:05;;;;;;;5.63;3.65;;;21.60;75.00;;;;;;10514101;28;20166;-82
2022/05/31 07:34:07;;;;;;;8.38;5.05;;;22.20;74.80;;;;;;10514248;28;20505;-81
2022/05/31 07:39:13;;;;;;;6.53;4.07;;;22.50;70.60;;;;;;10514175;28;20394;-83
2022/05/31 07:44:17;;;;;;;8.23;5.63;;;22.70;68.60;;;;;;10514710;28;20012;-81
2022/05/31 07:49:18;;;;;;;8.40;6.20;;;22.40;69.60;;;;;;10521189;28;20024;-82
2022/05/31 07:54:19;;;;;;;8.45;5.38;;;21.60;67.80;;;;;;10519529;28;20059;-81
2022/05/31 07:59:19;;;;;;;9.55;5.32;;;21.30;70.10;;;;;;10509901;28;20593;-81
2022/05/31 08:04:20;;;;;;;25.35;7.18;;;21.30;73.40;;;;;;10507648;28;20077;-80
2022/05/31 08:09:22;;;;;;;8.52;5.63;;;21.30;72.50;;;;;;10512035;28;20028;-82
2022/05/31 08:14:23;;;;;;;8.60;5.20;;;21.30;68.00;;;;;;10510768;28;20812;-84
2022/05/31 08:19:23;;;;;;;7.53;4.50;;;21.40;71.80;;;;;;10510384;28;20031;-80
2022/05/31 08:24:24;;;;;;;6.35;3.90;;;21.60;70.90;;;;;;10514497;28;20509;-86
2022/05/31 08:29:25;;;;;;;5.28;4.00;;;21.90;67.70;;;;;;10506985;28;20055;-85
2022/05/31 08:34:28;;;;;;;3.03;2.33;;;22.20;67.90;;;;;;10523053;28;20029;-83
2022/05/31 08:39:28;;;;;;;6.20;2.83;;;22.40;67.00;;;;;;10506473;28;20036;-84
2022/05/31 08:44:35;;;;;;;3.13;1.90;;;22.60;64.40;;;;;;10522243;28;20032;-84
2022/05/31 09:00:46;;;;;;;3.88;2.53;;;22.80;62.30;;;;;;10501164;28;20048;-81
2022/05/31 09:05:55;;;;;;;4.10;2.30;;;23.00;63.00;;;;;;10493271;28;20052;-84
2022/05/31 09:11:01;;;;;;;3.30;2.20;;;23.20;61.80;;;;;;10491487;28;20025;-84
2022/05/31 09:16:10;;;;;;;4.43;1.88;;;23.30;59.00;;;;;;10518453;28;20024;-85
2022/05/31 09:21:25;;;;;;;3.78;1.92;;;23.00;57.20;;;;;;10487182;28;20024;-85
2022/05/31 09:26:41;;;;;;;3.38;2.42;;;22.90;61.00;;;;;;10487132;28;20050;-84
2022/05/31 09:32:00;;;;;;;2.00;1.60;;;22.50;58.20;;;;;;10488569;28;20111;-87
2022/05/31 09:37:20;;;;;;;1.23;1.13;;;22.50;61.60;;;;;;10496802;28;20127;-86
2022/05/31 09:42:26;;;;;;;2.00;1.35;;;22.20;57.10;;;;;;10487413;28;20032;-86
2022/05/31 09:47:28;;;;;;;2.42;1.55;;;22.80;58.40;;;;;;10487123;28;20055;-83
2022/05/31 09:52:45;;;;;;;2.97;1.73;;;22.30;57.50;;;;;;10487988;28;20036;-84
2022/05/31 09:57:57;;;;;;;4.15;2.45;;;22.40;59.60;;;;;;10522092;28;20119;-84
2022/05/31 10:03:05;;;;;;;2.65;2.05;;;22.00;54.20;;;;;;10500838;28;20025;-84
2022/05/31 10:08:15;;;;;;;2.42;1.90;;;21.30;58.60;;;;;;10487873;28;20091;-86
2022/05/31 10:13:40;;;;;;;2.65;1.75;;;22.20;60.40;;;;;;10487353;28;20124;-87
2022/05/31 10:18:48;;;;;;;3.63;1.95;;;23.20;57.50;;;;;;10506295;28;20107;-85
2022/05/31 10:23:49;;;;;;;3.92;2.33;;;23.40;57.70;;;;;;10495414;28;20025;-85
2022/05/31 10:28:58;;;;;;;2.80;2.33;;;23.80;57.60;;;;;;10495771;28;20399;-87
2022/05/31 10:34:02;;;;;;;3.83;2.35;;;23.40;58.00;;;;;;10512662;28;20048;-85
2022/05/31 10:39:11;;;;;;;4.55;2.25;;;23.30;59.20;;;;;;10513644;28;20031;-84
2022/05/31 10:44:51;;;;;;;1.98;1.65;;;24.10;57.80;;;;;;10513719;28;20062;-85
2022/05/31 10:49:52;;;;;;;2.55;1.85;;;24.60;54.50;;;;;;10513312;28;20032;-84
2022/05/31 10:55:10;;;;;;;3.28;1.70;;;24.20;55.40;;;;;;10459169;22;20848;-87
2022/05/31 11:00:29;;;;;;;6.40;2.40;;;24.10;56.10;;;;;;10447372;28;20036;-84
2022/05/31 11:06:05;;;;;;;3.55;2.20;;;24.70;54.80;;;;;;10451555;28;20090;-84
2022/05/31 11:11:30;;;;;;;75.53;49.60;;;24.10;55.20;;;;;;10426103;28;20033;-86
2022/05/31 11:16:42;;;;;;;8.30;6.10;;;24.00;56.30;;;;;;10449670;28;20025;-85
2022/05/31 11:22:37;;;;;;;65.32;44.13;;;24.40;52.10;;;;;;10431667;28;20049;-86
2022/05/31 11:27:59;;;;;;;3.40;2.22;;;24.80;55.70;;;;;;10345219;28;20033;-87
2022/05/31 11:33:36;;;;;;;2.17;1.98;;;25.20;52.40;;;;;;10434021;28;20037;-87
2022/05/31 11:38:49;;;;;;;1.58;1.48;;;25.60;53.90;;;;;;10432933;28;20048;-83
2022/05/31 11:44:22;;;;;;;2.67;1.40;;;25.60;48.90;;;;;;10437046;28;20029;-87
2022/05/31 11:49:41;;;;;;;3.97;1.35;;;25.40;46.50;;;;;;10436618;28;20040;-86
2022/05/31 12:00:18;;;;;;;1.63;1.53;;;25.00;52.10;;;;;;10427873;28;20469;-86
2022/05/31 12:05:31;;;;;;;1.98;1.52;;;25.20;50.40;;;;;;10428952;28;20014;-87
2022/05/31 12:10:41;;;;;;;3.45;1.75;;;25.20;50.30;;;;;;10429123;28;20028;-84
2022/05/31 12:15:45;;;;;;;3.13;1.63;;;25.40;50.80;;;;;;10442215;28;20480;-85
2022/05/31 12:20:55;;;;;;;5.13;2.00;;;25.70;50.80;;;;;;10429427;28;20025;-87
2022/05/31 12:25:57;;;;;;;5.22;2.00;;;26.00;49.70;;;;;;10436939;28;20037;-83
2022/05/31 12:31:09;;;;;;;3.65;1.83;;;26.00;52.00;;;;;;10433178;28;20048;-86
2022/05/31 12:36:19;;;;;;;2.30;1.17;;;26.10;48.70;;;;;;10427719;28;20028;-87
2022/05/31 12:41:39;;;;;;;2.53;1.50;;;26.20;49.90;;;;;;10440709;28;20021;-84
2022/05/31 12:46:45;;;;;;;2.92;1.73;;;26.20;52.00;;;;;;10429374;28;20116;-84
2022/05/31 13:03:33;;;;;;;2.25;1.92;;;25.50;47.20;;;;;;10444364;28;20045;-85
2022/05/31 13:08:52;;;;;;;4.20;1.95;;;25.00;47.30;;;;;;10407977;28;20076;-83
2022/05/31 13:24:42;;;;;;;2.38;1.98;;;26.20;50.80;;;;;;10436778;28;20033;-83
2022/05/31 13:29:43;;;;;;;2.10;1.90;;;26.30;52.50;;;;;;10436676;28;20037;-83
2022/05/31 13:34:49;;;;;;;3.17;1.60;;;26.70;50.60;;;;;;10438976;28;20064;-83
2022/05/31 13:39:51;;;;;;;2.65;1.80;;;26.70;50.20;;;;;;10424732;28;20045;-85
2022/05/31 13:44:53;;;;;;;3.13;1.83;;;26.50;51.50;;;;;;10421280;28;20389;-83
2022/05/31 13:50:06;;;;;;;3.30;1.98;;;26.30;47.80;;;;;;10433057;28;20083;-82
2022/05/31 13:55:21;;;;;;;2.45;1.77;;;26.10;52.00;;;;;;10423859;28;20140;-82
2022/05/31 14:00:42;;;;;;;3.22;1.90;;;26.40;50.70;;;;;;10426095;28;20473;-83
2022/05/31 14:06:03;;;;;;;5.97;3.20;;;26.40;48.00;;;;;;10412881;28;20179;-87
2022/05/31 14:11:22;;;;;;;3.67;2.38;;;25.80;49.50;;;;;;10439902;28;20029;-82
2022/05/31 14:16:42;;;;;;;3.15;1.90;;;25.40;49.10;;;;;;10430940;28;20042;-85
2022/05/31 14:21:45;;;;;;;3.45;2.03;;;25.30;51.70;;;;;;10425372;28;20026;-82
2022/05/31 14:26:48;;;;;;;4.20;2.00;;;25.20;52.90;;;;;;10421946;28;20096;-83
2022/05/31 14:31:53;;;;;;;5.53;3.20;;;24.80;53.20;;;;;;10419658;28;20037;-86
2022/05/31 14:36:56;;;;;;;2.80;2.42;;;24.20;53.40;;;;;;10422983;28;21100;-86
2022/05/31 14:41:57;;;;;;;3.35;2.50;;;24.00;52.00;;;;;;10422395;28;20041;-84
2022/05/31 14:47:30;;;;;;;2.50;2.30;;;23.70;54.40;;;;;;10436032;28;20128;-83
2022/05/31 14:52:46;;;;;;;2.53;2.28;;;23.40;53.70;;;;;;10435910;28;20045;-83
2022/05/31 15:03:39;;;;;;;33.78;4.70;;;22.90;58.40;;;;;;10435241;28;20393;-82
2022/05/31 15:08:46;;;;;;;6.05;3.45;;;22.60;59.40;;;;;;10432827;28;20029;-87
2022/05/31 15:19:46;;;;;;;5.18;3.30;;;22.40;58.10;;;;;;10358811;28;20041;-84
2022/05/31 15:24:53;;;;;;;5.00;4.50;;;22.80;56.60;;;;;;10423350;28;20363;-85
2022/05/31 15:29:54;;;;;;;4.35;2.85;;;23.00;57.60;;;;;;10447917;28;20444;-85
2022/05/31 15:34:56;;;;;;;5.57;2.50;;;23.10;56.50;;;;;;10443931;28;20504;-86
2022/05/31 15:39:57;;;;;;;4.45;2.72;;;23.00;59.50;;;;;;10449884;28;20029;-84
2022/05/31 15:44:57;;;;;;;7.00;3.13;;;22.90;58.30;;;;;;10442306;28;20037;-83
2022/05/31 15:49:58;;;;;;;6.00;3.50;;;22.70;59.40;;;;;;10450665;28;20037;-84
2022/05/31 15:55:02;;;;;;;3.30;3.00;;;22.70;58.70;;;;;;10449070;28;20052;-84
2022/05/31 16:00:05;;;;;;;3.80;3.22;;;22.80;58.40;;;;;;10448285;28;20061;-86
2022/05/31 16:05:07;;;;;;;6.07;2.75;;;22.80;57.60;;;;;;10446983;28;20037;-86
2022/05/31 16:10:14;;;;;;;12.27;8.80;;;22.80;58.10;;;;;;10439766;28;20028;-85
2022/05/31 16:15:15;;;;;;;10.52;7.07;;;22.60;60.30;;;;;;10446854;28;20182;-86
2022/05/31 16:20:17;;;;;;;9.55;6.70;;;22.30;60.90;;;;;;10444857;28;20021;-83
2022/05/31 16:25:21;;;;;;;10.35;6.55;;;22.10;61.10;;;;;;10448660;28;20100;-83
2022/05/31 16:36:01;;;;;;;6.95;5.03;;;21.80;61.40;;;;;;10431662;28;20072;-87
2022/05/31 16:41:10;;;;;;;8.27;5.63;;;21.70;62.90;;;;;;10446643;28;20021;-83
2022/05/31 16:46:12;;;;;;;9.80;6.60;;;21.50;65.50;;;;;;10443866;28;20036;-83
2022/05/31 16:51:20;;;;;;;6.22;4.75;;;21.30;66.10;;;;;;10423155;28;20033;-84
2022/05/31 16:56:21;;;;;;;6.97;5.20;;;21.00;66.40;;;;;;10425352;28;20381;-83
2022/05/31 17:01:22;;;;;;;7.70;5.05;;;20.90;65.30;;;;;;10436512;28;20036;-86
2022/05/31 17:17:02;;;;;;;5.93;5.05;;;20.00;68.20;;;;;;10435312;28;20464;-83
2022/05/31 17:22:03;;;;;;;4.22;3.80;;;19.80;69.10;;;;;;10429303;28;20025;-85
2022/05/31 17:27:04;;;;;;;8.15;3.90;;;19.50;70.50;;;;;;10421963;28;20771;-83
2022/05/31 17:32:05;;;;;;;3.88;3.40;;;19.40;71.90;;;;;;10434740;28;20105;-84
2022/05/31 17:37:07;;;;;;;4.32;3.60;;;19.20;73.20;;;;;;10425582;28;20017;-86
2022/05/31 17:42:08;;;;;;;5.10;3.55;;;19.10;73.40;;;;;;10426307;28;20108;-83
2022/05/31 17:47:08;;;;;;;4.30;3.88;;;18.90;74.20;;;;;;10432586;28;20013;-84
2022/05/31 17:52:09;;;;;;;4.13;3.72;;;18.90;77.80;;;;;;10426622;28;20046;-83
2022/05/31 17:57:10;;;;;;;6.13;4.63;;;18.70;78.40;;;;;;10435872;28;20396;-86
2022/05/31 18:02:11;;;;;;;6.45;4.55;;;18.50;79.20;;;;;;10435811;28;20029;-82
2022/05/31 18:07:12;;;;;;;8.82;4.40;;;18.30;78.70;;;;;;10441607;28;20032;-84
2022/05/31 18:12:13;;;;;;;6.28;4.43;;;18.20;80.20;;;;;;10420697;28;20036;-84
2022/05/31 18:17:14;;;;;;;4.95;4.45;;;18.10;79.20;;;;;;10438316;28;20472;-87
2022/05/31 18:22:20;;;;;;;12.45;6.07;;;17.90;79.80;;;;;;10423565;28;20116;-84
2022/05/31 18:27:21;;;;;;;7.20;5.53;;;17.70;78.80;;;;;;10429473;28;20098;-82
2022/05/31 18:32:26;;;;;;;7.13;5.18;;;17.70;79.80;;;;;;10426108;28;20136;-83
2022/05/31 18:42:45;;;;;;;6.85;4.78;;;17.70;79.10;;;;;;10432118;28;20033;-84
2022/05/31 18:47:46;;;;;;;7.03;4.82;;;17.60;78.80;;;;;;10433899;28;20029;-88
2022/05/31 18:52:47;;;;;;;7.18;5.22;;;17.60;80.40;;;;;;10438804;28;20481;-85
2022/05/31 18:57:52;;;;;;;8.05;4.65;;;17.40;80.00;;;;;;10436955;28;20278;-87
2022/05/31 19:02:53;;;;;;;5.97;4.50;;;17.30;80.40;;;;;;10432741;28;20060;-84
2022/05/31 19:07:54;;;;;;;5.78;4.43;;;17.30;81.40;;;;;;10437230;28;20029;-87
2022/05/31 19:12:58;;;;;;;9.35;5.25;;;17.20;82.60;;;;;;10445173;28;20049;-85
2022/05/31 19:18:02;;;;;;;15.32;8.57;;;17.00;84.20;;;;;;10440865;28;20400;-84
2022/05/31 19:23:03;;;;;;;13.45;8.65;;;16.90;85.20;;;;;;10437628;28;20033;-84
2022/05/31 19:28:05;;;;;;;12.25;8.15;;;16.80;86.40;;;;;;10436651;28;20041;-84
2022/05/31 19:33:13;;;;;;;19.27;11.30;;;16.60;88.00;;;;;;10437976;28;20470;-84
2022/05/31 19:38:17;;;;;;;19.60;11.07;;;16.40;88.10;;;;;;10434888;28;20025;-83
2022/05/31 19:43:18;;;;;;;13.73;8.85;;;16.40;88.50;;;;;;10444731;28;20055;-84
2022/05/31 19:48:19;;;;;;;15.88;9.63;;;16.50;90.10;;;;;;10428185;28;20090;-84
2022/05/31 19:53:23;;;;;;;13.15;7.88;;;16.40;90.70;;;;;;10431862;28;20718;-84
2022/05/31 19:58:28;;;;;;;12.82;8.23;;;16.40;91.50;;;;;;10439654;28;20034;-86
2022/05/31 20:03:28;;;;;;;10.57;6.17;;;16.40;92.70;;;;;;10433994;28;20128;-83
2022/05/31 20:13:50;;;;;;;22.13;12.10;;;16.40;94.40;;;;;;10438649;28;20044;-84
2022/05/31 20:23:57;;;;;;;20.60;10.45;;;16.10;96.90;;;;;;10428812;28;20573;-84
2022/05/31 20:28:57;;;;;;;10.60;8.50;;;16.10;97.20;;;;;;10441937;28;20178;-84
2022/05/31 20:33:58;;;;;;;12.70;8.63;;;15.90;98.30;;;;;;10438939;28;20042;-86
2022/05/31 20:38:59;;;;;;;11.65;7.57;;;15.90;99.90;;;;;;10437473;28;20025;-84
2022/05/31 20:44:04;;;;;;;11.65;7.63;;;15.90;99.90;;;;;;10442542;28;20419;-84
2022/05/31 20:49:08;;;;;;;11.65;7.82;;;15.80;99.90;;;;;;10436400;28;20033;-86
2022/05/31 20:54:12;;;;;;;16.00;7.68;;;15.70;99.90;;;;;;10434732;28;20076;-85
2022/05/31 20:59:14;;;;;;;10.05;7.18;;;15.60;99.90;;;;;;10427538;28;20035;-83
2022/05/31 21:04:15;;;;;;;10.45;7.10;;;15.50;99.90;;;;;;10438727;28;20393;-83
2022/05/31 21:09:22;;;;;;;8.85;6.25;;;15.30;99.90;;;;;;10428559;28;20028;-84
2022/05/31 21:14:26;;;;;;;9.57;7.50;;;15.20;99.90;;;;;;10431348;28;20114;-86
2022/05/31 21:19:29;;;;;;;10.60;6.72;;;15.10;99.90;;;;;;10425841;28;20053;-84
2022/05/31 21:24:30;;;;;;;8.65;6.05;;;15.10;99.90;;;;;;10436453;28;20035;-84
2022/05/31 21:29:34;;;;;;;8.93;6.18;;;15.00;99.90;;;;;;10436665;28;20024;-85
2022/05/31 21:34:36;;;;;;;9.55;7.00;;;14.90;99.90;;;;;;10433393;28;20040;-85
2022/05/31 21:44:56;;;;;;;11.43;6.65;;;14.80;99.90;;;;;;10427500;28;20040;-85
2022/05/31 21:49:56;;;;;;;10.90;6.95;;;14.70;99.90;;;;;;10431846;28;20017;-84
2022/05/31 21:54:58;;;;;;;17.98;8.07;;;14.70;99.90;;;;;;10438403;28;20523;-85
2022/05/31 21:59:58;;;;;;;12.23;8.43;;;14.60;99.90;;;;;;10432949;28;20036;-85
2022/05/31 22:05:00;;;;;;;12.60;8.90;;;14.40;99.90;;;;;;10423582;28;20047;-85
2022/05/31 22:10:01;;;;;;;15.00;8.98;;;14.10;99.90;;;;;;10437344;28;20237;-85
2022/05/31 22:15:03;;;;;;;12.05;8.10;;;14.10;99.90;;;;;;10437636;28;20040;-86
2022/05/31 22:20:06;;;;;;;14.93;9.38;;;14.10;99.90;;;;;;10444792;28;20555;-84
2022/05/31 22:25:13;;;;;;;12.07;8.38;;;14.00;99.90;;;;;;10428514;28;20025;-83
2022/05/31 22:30:16;;;;;;;13.35;9.05;;;13.90;99.90;;;;;;10452300;28;20037;-83
2022/05/31 22:35:17;;;;;;;14.27;10.27;;;13.80;99.90;;;;;;10451997;28;20811;-84
2022/05/31 22:40:21;;;;;;;14.82;9.27;;;13.80;99.90;;;;;;10499548;23;20045;-84
2022/05/31 22:45:24;;;;;;;13.45;9.32;;;13.60;99.90;;;;;;10473679;28;20021;-83
2022/05/31 22:50:27;;;;;;;14.02;9.93;;;13.70;99.90;;;;;;10476406;28;20055;-84
2022/05/31 22:55:28;;;;;;;14.50;9.23;;;13.80;99.90;;;;;;10493334;28;20067;-86
2022/05/31 23:00:39;;;;;;;13.70;9.20;;;13.70;99.90;;;;;;10489689;28;20029;-84
2022/05/31 23:05:41;;;;;;;14.05;9.10;;;13.80;99.90;;;;;;10493613;28;20089;-84
2022/05/31 23:10:42;;;;;;;15.73;8.90;;;13.80;99.90;;;;;;10493295;28;20082;-85
2022/05/31 23:15:47;;;;;;;13.05;8.98;;;13.80;99.90;;;;;;10491525;28;20044;-83
2022/05/31 23:20:52;;;;;;;13.55;8.65;;;13.80;99.90;;;;;;10493003;28;20111;-83
2022/05/31 23:25:55;;;;;;;12.68;8.60;;;13.80;99.90;;;;;;10490472;28;20048;-83
2022/05/31 23:31:06;;;;;;;14.60;8.95;;;13.80;99.90;;;;;;10484398;28;20025;-86
2022/05/31 23:36:07;;;;;;;13.40;8.40;;;13.80;99.90;;;;;;10490805;28;20065;-84
2022/05/31 23:41:07;;;;;;;13.27;8.55;;;13.80;99.90;;;;;;10485679;28;20685;-83
2022/05/31 23:46:08;;;;;;;14.05;8.55;;;13.80;99.90;;;;;;10489654;28;20024;-86
2022/05/31 23:51:09;;;;;;;12.35;8.43;;;13.80;99.90;;;;;;10491175;28;20024;-82
2022/05/31 23:56:10;;;;;;;13.82;10.00;;;13.80;99.90;;;;;;10478463;28;20039;-83
